createdAt,value
2018-12-15T00:00:05.168Z,966.93
2018-12-15T00:01:05.102Z,966.93
2018-12-15T00:02:05.029Z,966.90
2018-12-15T00:03:04.972Z,966.89
2018-12-15T00:04:04.887Z,966.94
2018-12-15T00:05:04.841Z,966.91
2018-12-15T00:06:04.753Z,966.92
2018-12-15T00:07:04.683Z,966.93
2018-12-15T00:08:04.611Z,966.94
2018-12-15T00:09:04.544Z,966.98
2018-12-15T00:10:04.476Z,966.98
2018-12-15T00:11:04.408Z,966.99
2018-12-15T00:12:04.333Z,966.95
2018-12-15T00:13:04.267Z,966.97
2018-12-15T00:14:04.197Z,966.97
2018-12-15T00:15:04.127Z,966.95
2018-12-15T00:16:04.066Z,966.92
2018-12-15T00:17:05.810Z,966.97
2018-12-15T00:18:03.920Z,966.92
2018-12-15T00:19:03.852Z,966.95
2018-12-15T00:20:03.787Z,966.98
2018-12-15T00:21:03.714Z,966.99
2018-12-15T00:22:03.653Z,966.98
2018-12-15T00:23:03.575Z,966.98
2018-12-15T00:24:03.508Z,966.95
2018-12-15T00:25:03.439Z,966.96
2018-12-15T00:26:03.361Z,966.98
2018-12-15T00:27:03.296Z,966.94
2018-12-15T00:28:03.227Z,966.93
2018-12-15T00:29:03.158Z,966.95
2018-12-15T00:30:03.091Z,966.92
2018-12-15T00:31:03.020Z,966.97
2018-12-15T00:32:02.947Z,966.91
2018-12-15T00:33:02.880Z,966.96
2018-12-15T00:34:02.816Z,966.93
2018-12-15T00:35:02.738Z,966.98
2018-12-15T00:36:02.668Z,966.96
2018-12-15T00:37:02.601Z,967.02
2018-12-15T00:38:02.536Z,967.02
2018-12-15T00:39:02.461Z,966.99
2018-12-15T00:40:02.391Z,966.96
2018-12-15T00:41:02.320Z,966.99
2018-12-15T00:42:02.266Z,967.01
2018-12-15T00:43:02.181Z,967.03
2018-12-15T00:44:02.114Z,967.04
2018-12-15T00:45:02.048Z,967.06
2018-12-15T00:46:01.999Z,967.07
2018-12-15T00:47:01.907Z,967.06
2018-12-15T00:48:01.835Z,967.09
2018-12-15T00:49:01.766Z,967.10
2018-12-15T00:50:01.709Z,967.10
2018-12-15T00:51:01.624Z,967.10
2018-12-15T00:52:01.559Z,967.11
2018-12-15T00:53:01.488Z,967.12
2018-12-15T00:54:01.427Z,967.12
2018-12-15T00:55:01.346Z,967.15
2018-12-15T00:56:01.287Z,967.12
2018-12-15T00:57:01.210Z,967.14
2018-12-15T00:58:01.147Z,967.14
2018-12-15T00:59:01.069Z,967.15
2018-12-15T01:00:01.003Z,967.13
2018-12-15T01:01:00.934Z,967.17
2018-12-15T01:02:00.866Z,967.18
2018-12-15T01:03:00.803Z,967.17
2018-12-15T01:04:00.748Z,967.19
2018-12-15T01:05:00.656Z,967.19
2018-12-15T01:06:00.587Z,967.23
2018-12-15T01:07:00.524Z,967.16
2018-12-15T01:08:00.447Z,967.19
2018-12-15T01:09:00.379Z,967.20
2018-12-15T01:10:00.310Z,967.19
2018-12-15T01:11:00.245Z,967.19
2018-12-15T01:12:00.187Z,967.19
2018-12-15T01:13:00.099Z,967.18
2018-12-15T01:14:00.034Z,967.20
2018-12-15T01:14:59.969Z,967.21
2018-12-15T01:15:59.902Z,967.23
2018-12-15T01:16:59.833Z,967.23
2018-12-15T01:17:59.754Z,967.19
2018-12-15T01:18:59.685Z,967.18
2018-12-15T01:19:59.620Z,967.24
2018-12-15T01:20:59.551Z,967.21
2018-12-15T01:21:59.476Z,967.22
2018-12-15T01:22:59.447Z,967.23
2018-12-15T01:23:59.344Z,967.27
2018-12-15T01:24:59.275Z,967.24
2018-12-15T01:25:59.199Z,967.26
2018-12-15T01:26:59.131Z,967.24
2018-12-15T01:27:59.059Z,967.24
2018-12-15T01:28:58.998Z,967.25
2018-12-15T01:29:58.923Z,967.22
2018-12-15T01:30:58.854Z,967.22
2018-12-15T01:31:58.780Z,967.16
2018-12-15T01:32:58.712Z,967.22
2018-12-15T01:33:58.683Z,967.23
2018-12-15T01:34:58.575Z,967.22
2018-12-15T01:35:58.503Z,967.25
2018-12-15T01:36:58.441Z,967.25
2018-12-15T01:37:58.366Z,967.28
2018-12-15T01:38:58.298Z,967.29
2018-12-15T01:39:58.229Z,967.28
2018-12-15T01:40:58.159Z,967.33
2018-12-15T01:41:58.087Z,967.31
2018-12-15T01:42:58.020Z,967.37
2018-12-15T01:43:57.954Z,967.39
2018-12-15T01:44:57.894Z,967.37
2018-12-15T01:45:57.819Z,967.38
2018-12-15T01:46:57.744Z,967.40
2018-12-15T01:47:57.673Z,967.42
2018-12-15T01:48:57.604Z,967.48
2018-12-15T01:49:57.543Z,967.44
2018-12-15T01:50:57.466Z,967.45
2018-12-15T01:51:57.397Z,967.49
2018-12-15T01:52:57.326Z,967.50
2018-12-15T01:53:57.263Z,967.48
2018-12-15T01:54:57.198Z,967.48
2018-12-15T01:55:57.126Z,967.46
2018-12-15T01:56:57.050Z,967.49
2018-12-15T01:57:56.982Z,967.53
2018-12-15T01:58:56.910Z,967.50
2018-12-15T01:59:56.846Z,967.52
2018-12-15T02:00:56.771Z,967.50
2018-12-15T02:01:56.712Z,967.51
2018-12-15T02:02:56.639Z,967.51
2018-12-15T02:03:56.576Z,967.49
2018-12-15T02:04:56.494Z,967.51
2018-12-15T02:05:56.425Z,967.49
2018-12-15T02:06:56.358Z,967.52
2018-12-15T02:07:56.305Z,967.57
2018-12-15T02:08:56.221Z,967.54
2018-12-15T02:09:56.149Z,967.54
2018-12-15T02:10:56.080Z,967.50
2018-12-15T02:11:56.015Z,967.50
2018-12-15T02:12:55.937Z,967.52
2018-12-15T02:13:55.867Z,967.50
2018-12-15T02:14:55.799Z,967.53
2018-12-15T02:15:55.736Z,967.58
2018-12-15T02:16:55.659Z,967.54
2018-12-15T02:17:55.594Z,967.56
2018-12-15T02:18:55.526Z,967.58
2018-12-15T02:19:55.452Z,967.56
2018-12-15T02:20:55.380Z,967.56
2018-12-15T02:21:55.314Z,967.55
2018-12-15T02:22:55.250Z,967.55
2018-12-15T02:23:55.186Z,967.58
2018-12-15T02:24:55.103Z,967.60
2018-12-15T02:25:55.036Z,967.62
2018-12-15T02:26:54.967Z,967.61
2018-12-15T02:27:54.901Z,967.63
2018-12-15T02:28:54.827Z,967.59
2018-12-15T02:29:54.759Z,967.59
2018-12-15T02:30:54.698Z,967.57
2018-12-15T02:31:54.619Z,967.58
2018-12-15T02:32:54.550Z,967.56
2018-12-15T02:33:54.484Z,967.54
2018-12-15T02:34:54.414Z,967.54
2018-12-15T02:35:54.343Z,967.60
2018-12-15T02:36:54.288Z,967.60
2018-12-15T02:37:54.206Z,967.61
2018-12-15T02:38:54.135Z,967.60
2018-12-15T02:39:54.063Z,967.60
2018-12-15T02:40:54.001Z,967.62
2018-12-15T02:41:53.934Z,967.61
2018-12-15T02:42:53.868Z,967.61
2018-12-15T02:43:53.788Z,967.56
2018-12-15T02:44:53.723Z,967.59
2018-12-15T02:45:53.679Z,967.63
2018-12-15T02:46:53.593Z,967.57
2018-12-15T02:47:53.507Z,967.59
2018-12-15T02:48:53.441Z,967.62
2018-12-15T02:49:53.376Z,967.60
2018-12-15T02:50:53.312Z,967.63
2018-12-15T02:51:53.232Z,967.64
2018-12-15T02:52:53.168Z,967.62
2018-12-15T02:53:53.097Z,967.60
2018-12-15T02:54:53.027Z,967.65
2018-12-15T02:55:52.959Z,967.64
2018-12-15T02:56:52.890Z,967.63
2018-12-15T02:57:52.880Z,967.61
2018-12-15T02:58:52.762Z,967.63
2018-12-15T02:59:52.676Z,967.60
2018-12-15T03:00:52.611Z,967.58
2018-12-15T03:01:52.545Z,967.60
2018-12-15T03:02:52.480Z,967.62
2018-12-15T03:03:52.397Z,967.61
2018-12-15T03:04:52.339Z,967.59
2018-12-15T03:05:52.267Z,967.58
2018-12-15T03:06:52.198Z,967.59
2018-12-15T03:07:52.122Z,967.57
2018-12-15T03:08:52.055Z,967.59
2018-12-15T03:09:51.988Z,967.53
2018-12-15T03:10:51.917Z,967.55
2018-12-15T03:11:51.845Z,967.54
2018-12-15T03:12:51.776Z,967.60
2018-12-15T03:13:51.732Z,967.58
2018-12-15T03:14:51.641Z,967.60
2018-12-15T03:15:51.578Z,967.66
2018-12-15T03:16:51.502Z,967.64
2018-12-15T03:17:51.434Z,967.66
2018-12-15T03:18:51.366Z,967.67
2018-12-15T03:19:51.298Z,967.66
2018-12-15T03:20:51.232Z,967.68
2018-12-15T03:21:51.153Z,967.64
2018-12-15T03:22:51.092Z,967.66
2018-12-15T03:23:51.022Z,967.64
2018-12-15T03:24:50.951Z,967.66
2018-12-15T03:25:50.884Z,967.67
2018-12-15T03:26:50.811Z,967.71
2018-12-15T03:27:50.740Z,967.70
2018-12-15T03:28:50.671Z,967.67
2018-12-15T03:29:50.612Z,967.68
2018-12-15T03:30:50.532Z,967.65
2018-12-15T03:31:50.465Z,967.70
2018-12-15T03:32:50.397Z,967.68
2018-12-15T03:33:50.329Z,967.66
2018-12-15T03:34:50.253Z,967.68
2018-12-15T03:35:50.187Z,967.67
2018-12-15T03:36:50.121Z,967.66
2018-12-15T03:37:50.057Z,967.70
2018-12-15T03:38:49.979Z,967.69
2018-12-15T03:39:49.908Z,967.66
2018-12-15T03:40:49.839Z,967.60
2018-12-15T03:41:49.781Z,967.67
2018-12-15T03:42:49.703Z,967.65
2018-12-15T03:43:49.635Z,967.60
2018-12-15T03:44:49.563Z,967.67
2018-12-15T03:45:49.492Z,967.66
2018-12-15T03:46:49.424Z,967.68
2018-12-15T03:47:55.947Z,967.67
2018-12-15T03:48:49.287Z,967.69
2018-12-15T03:49:49.230Z,967.72
2018-12-15T03:50:49.168Z,967.65
2018-12-15T03:51:49.079Z,967.71
2018-12-15T03:52:49.037Z,967.73
2018-12-15T03:53:48.946Z,967.75
2018-12-15T03:54:48.878Z,967.73
2018-12-15T03:55:48.813Z,967.76
2018-12-15T03:56:48.742Z,967.78
2018-12-15T03:57:48.666Z,967.75
2018-12-15T03:58:48.598Z,967.77
2018-12-15T03:59:48.529Z,967.78
2018-12-15T04:00:48.468Z,967.75
2018-12-15T04:01:48.384Z,967.76
2018-12-15T04:02:48.426Z,967.75
2018-12-15T04:03:48.254Z,967.75
2018-12-15T04:04:48.185Z,967.76
2018-12-15T04:05:48.107Z,967.72
2018-12-15T04:06:48.039Z,967.75
2018-12-15T04:07:47.977Z,967.74
2018-12-15T04:08:47.903Z,967.73
2018-12-15T04:09:47.830Z,967.78
2018-12-15T04:10:47.764Z,967.78
2018-12-15T04:11:47.694Z,967.78
2018-12-15T04:12:47.628Z,967.81
2018-12-15T04:13:47.551Z,967.80
2018-12-15T04:14:47.486Z,967.83
2018-12-15T04:15:47.418Z,967.80
2018-12-15T04:16:47.343Z,967.86
2018-12-15T04:17:47.271Z,967.85
2018-12-15T04:18:47.218Z,967.84
2018-12-15T04:19:47.142Z,967.89
2018-12-15T04:20:47.068Z,967.88
2018-12-15T04:21:46.996Z,967.91
2018-12-15T04:22:46.928Z,967.89
2018-12-15T04:23:46.859Z,967.93
2018-12-15T04:24:46.790Z,967.91
2018-12-15T04:25:46.723Z,967.91
2018-12-15T04:26:46.654Z,967.87
2018-12-15T04:27:46.585Z,967.92
2018-12-15T04:28:46.524Z,967.91
2018-12-15T04:29:46.438Z,967.92
2018-12-15T04:30:46.388Z,967.95
2018-12-15T04:31:46.305Z,967.97
2018-12-15T04:32:46.236Z,967.97
2018-12-15T04:33:46.175Z,967.95
2018-12-15T04:34:46.101Z,967.95
2018-12-15T04:35:46.043Z,967.97
2018-12-15T04:36:45.958Z,967.94
2018-12-15T04:37:45.901Z,967.96
2018-12-15T04:38:45.828Z,967.99
2018-12-15T04:39:45.767Z,967.98
2018-12-15T04:40:45.689Z,968.04
2018-12-15T04:41:45.616Z,968.01
2018-12-15T04:42:45.564Z,968.03
2018-12-15T04:43:45.487Z,968.01
2018-12-15T04:44:45.402Z,968.03
2018-12-15T04:45:45.335Z,968.02
2018-12-15T04:46:45.269Z,968.02
2018-12-15T04:47:45.199Z,968.01
2018-12-15T04:48:45.125Z,968.01
2018-12-15T04:49:45.057Z,967.99
2018-12-15T04:50:44.989Z,967.99
2018-12-15T04:51:44.966Z,968.00
2018-12-15T04:52:44.846Z,967.98
2018-12-15T04:53:44.778Z,967.98
2018-12-15T04:54:44.710Z,968.00
2018-12-15T04:55:44.646Z,968.00
2018-12-15T04:56:44.567Z,968.01
2018-12-15T04:57:44.503Z,967.98
2018-12-15T04:58:44.433Z,968.05
2018-12-15T04:59:44.372Z,968.01
2018-12-15T05:00:44.290Z,968.00
2018-12-15T05:01:44.223Z,968.04
2018-12-15T05:02:44.325Z,968.06
2018-12-15T05:03:44.087Z,968.04
2018-12-15T05:04:44.011Z,968.10
2018-12-15T05:05:43.950Z,968.10
2018-12-15T05:06:43.878Z,968.09
2018-12-15T05:07:43.805Z,968.09
2018-12-15T05:08:43.735Z,968.10
2018-12-15T05:09:43.670Z,968.10
2018-12-15T05:10:43.605Z,968.15
2018-12-15T05:11:43.531Z,968.12
2018-12-15T05:12:43.466Z,968.13
2018-12-15T05:13:43.393Z,968.16
2018-12-15T05:14:43.322Z,968.16
2018-12-15T05:15:43.259Z,968.15
2018-12-15T05:16:43.191Z,968.16
2018-12-15T05:17:43.118Z,968.17
2018-12-15T05:18:43.068Z,968.16
2018-12-15T05:19:42.979Z,968.17
2018-12-15T05:20:42.914Z,968.16
2018-12-15T05:21:42.843Z,968.13
2018-12-15T05:22:42.777Z,968.12
2018-12-15T05:23:42.699Z,968.12
2018-12-15T05:24:42.638Z,968.11
2018-12-15T05:25:42.571Z,968.11
2018-12-15T05:26:42.507Z,968.10
2018-12-15T05:27:42.422Z,968.13
2018-12-15T05:28:42.362Z,968.14
2018-12-15T05:29:42.285Z,968.16
2018-12-15T05:30:42.219Z,968.13
2018-12-15T05:31:42.143Z,968.14
2018-12-15T05:32:42.078Z,968.13
2018-12-15T05:33:42.008Z,968.12
2018-12-15T05:34:41.937Z,968.17
2018-12-15T05:35:41.866Z,968.11
2018-12-15T05:36:42.501Z,968.17
2018-12-15T05:37:41.730Z,968.12
2018-12-15T05:38:41.668Z,968.15
2018-12-15T05:39:41.586Z,968.12
2018-12-15T05:40:41.525Z,968.15
2018-12-15T05:41:41.455Z,968.15
2018-12-15T05:42:41.386Z,968.10
2018-12-15T05:43:41.310Z,968.18
2018-12-15T05:44:41.245Z,968.15
2018-12-15T05:45:41.178Z,968.17
2018-12-15T05:46:41.105Z,968.17
2018-12-15T05:47:41.032Z,968.18
2018-12-15T05:48:40.967Z,968.20
2018-12-15T05:49:40.902Z,968.21
2018-12-15T05:50:40.847Z,968.21
2018-12-15T05:51:40.761Z,968.18
2018-12-15T05:52:40.692Z,968.24
2018-12-15T05:53:40.623Z,968.22
2018-12-15T05:54:40.555Z,968.27
2018-12-15T05:55:40.489Z,968.26
2018-12-15T05:56:40.426Z,968.24
2018-12-15T05:57:40.352Z,968.28
2018-12-15T05:58:40.285Z,968.27
2018-12-15T05:59:40.210Z,968.29
2018-12-15T06:00:40.144Z,968.30
2018-12-15T06:01:40.087Z,968.31
2018-12-15T06:02:40.003Z,968.31
2018-12-15T06:03:39.929Z,968.33
2018-12-15T06:04:39.861Z,968.30
2018-12-15T06:05:39.797Z,968.33
2018-12-15T06:06:39.722Z,968.31
2018-12-15T06:07:39.653Z,968.33
2018-12-15T06:08:39.584Z,968.34
2018-12-15T06:09:39.516Z,968.31
2018-12-15T06:10:39.444Z,968.32
2018-12-15T06:11:39.377Z,968.34
2018-12-15T06:12:39.307Z,968.32
2018-12-15T06:13:39.241Z,968.32
2018-12-15T06:14:39.167Z,968.35
2018-12-15T06:15:39.100Z,968.32
2018-12-15T06:16:39.030Z,968.37
2018-12-15T06:17:38.965Z,968.34
2018-12-15T06:18:38.889Z,968.40
2018-12-15T06:19:38.824Z,968.37
2018-12-15T06:20:38.757Z,968.37
2018-12-15T06:21:38.686Z,968.42
2018-12-15T06:22:38.615Z,968.38
2018-12-15T06:23:38.550Z,968.41
2018-12-15T06:24:38.478Z,968.40
2018-12-15T06:25:38.413Z,968.37
2018-12-15T06:26:38.343Z,968.36
2018-12-15T06:27:38.269Z,968.34
2018-12-15T06:28:38.209Z,968.31
2018-12-15T06:29:38.131Z,968.34
2018-12-15T06:30:38.062Z,968.34
2018-12-15T06:31:38.003Z,968.35
2018-12-15T06:32:37.931Z,968.35
2018-12-15T06:33:37.863Z,968.33
2018-12-15T06:34:37.784Z,968.32
2018-12-15T06:35:37.719Z,968.34
2018-12-15T06:36:37.658Z,968.32
2018-12-15T06:37:37.577Z,968.34
2018-12-15T06:38:37.505Z,968.33
2018-12-15T06:39:37.440Z,968.32
2018-12-15T06:40:37.377Z,968.32
2018-12-15T06:41:37.300Z,968.32
2018-12-15T06:42:37.231Z,968.31
2018-12-15T06:43:37.202Z,968.32
2018-12-15T06:44:37.101Z,968.29
2018-12-15T06:45:37.022Z,968.29
2018-12-15T06:46:36.955Z,968.33
2018-12-15T06:47:36.884Z,968.30
2018-12-15T06:48:38.272Z,968.30
2018-12-15T06:49:36.742Z,968.31
2018-12-15T06:50:36.679Z,968.31
2018-12-15T06:51:36.606Z,968.34
2018-12-15T06:52:36.541Z,968.36
2018-12-15T06:53:36.464Z,968.38
2018-12-15T06:54:36.401Z,968.37
2018-12-15T06:55:36.331Z,968.37
2018-12-15T06:56:36.262Z,968.37
2018-12-15T06:57:36.192Z,968.35
2018-12-15T06:58:36.122Z,968.32
2018-12-15T06:59:36.050Z,968.36
2018-12-15T07:00:35.983Z,968.36
2018-12-15T07:01:35.910Z,968.36
2018-12-15T07:02:35.846Z,968.34
2018-12-15T07:03:35.773Z,968.33
2018-12-15T07:04:35.706Z,968.30
2018-12-15T07:05:35.643Z,968.32
2018-12-15T07:06:35.570Z,968.30
2018-12-15T07:07:35.514Z,968.30
2018-12-15T07:08:35.427Z,968.32
2018-12-15T07:09:35.363Z,968.33
2018-12-15T07:10:35.298Z,968.33
2018-12-15T07:11:35.237Z,968.36
2018-12-15T07:12:35.150Z,968.36
2018-12-15T07:13:35.083Z,968.34
2018-12-15T07:14:35.017Z,968.34
2018-12-15T07:15:34.951Z,968.34
2018-12-15T07:16:34.876Z,968.34
2018-12-15T07:17:34.804Z,968.34
2018-12-15T07:18:34.742Z,968.36
2018-12-15T07:19:34.670Z,968.36
2018-12-15T07:20:34.596Z,968.41
2018-12-15T07:21:34.528Z,968.38
2018-12-15T07:22:34.458Z,968.39
2018-12-15T07:23:34.398Z,968.41
2018-12-15T07:24:34.318Z,968.46
2018-12-15T07:25:34.248Z,968.48
2018-12-15T07:26:34.181Z,968.50
2018-12-15T07:27:34.112Z,968.47
2018-12-15T07:28:34.040Z,968.49
2018-12-15T07:29:33.970Z,968.50
2018-12-15T07:30:33.902Z,968.47
2018-12-15T07:31:33.837Z,968.46
2018-12-15T07:32:33.761Z,968.48
2018-12-15T07:33:33.694Z,968.47
2018-12-15T07:34:33.627Z,968.53
2018-12-15T07:35:33.557Z,968.48
2018-12-15T07:36:33.489Z,968.47
2018-12-15T07:37:33.415Z,968.52
2018-12-15T07:38:33.350Z,968.55
2018-12-15T07:39:33.280Z,968.54
2018-12-15T07:40:33.213Z,968.54
2018-12-15T07:41:33.144Z,968.54
2018-12-15T07:42:33.076Z,968.50
2018-12-15T07:43:33.001Z,968.58
2018-12-15T07:44:32.940Z,968.56
2018-12-15T07:45:32.865Z,968.59
2018-12-15T07:46:32.812Z,968.60
2018-12-15T07:47:32.726Z,968.61
2018-12-15T07:48:32.659Z,968.61
2018-12-15T07:49:32.593Z,968.60
2018-12-15T07:50:32.525Z,968.63
2018-12-15T07:51:32.447Z,968.63
2018-12-15T07:52:32.380Z,968.63
2018-12-15T07:53:32.314Z,968.64
2018-12-15T07:54:32.246Z,968.66
2018-12-15T07:55:32.172Z,968.64
2018-12-15T07:56:32.102Z,968.59
2018-12-15T07:57:32.032Z,968.62
2018-12-15T07:58:31.982Z,968.69
2018-12-15T07:59:31.892Z,968.65
2018-12-15T08:00:31.823Z,968.63
2018-12-15T08:01:31.754Z,968.66
2018-12-15T08:02:31.698Z,968.65
2018-12-15T08:03:31.615Z,968.68
2018-12-15T08:04:31.545Z,968.67
2018-12-15T08:05:31.477Z,968.69
2018-12-15T08:06:31.409Z,968.65
2018-12-15T08:07:31.335Z,968.67
2018-12-15T08:08:31.268Z,968.69
2018-12-15T08:09:31.200Z,968.68
2018-12-15T08:10:31.132Z,968.68
2018-12-15T08:11:31.056Z,968.67
2018-12-15T08:12:30.992Z,968.66
2018-12-15T08:13:30.923Z,968.68
2018-12-15T08:14:30.854Z,968.67
2018-12-15T08:15:30.779Z,968.69
2018-12-15T08:16:30.711Z,968.69
2018-12-15T08:17:30.646Z,968.68
2018-12-15T08:18:30.575Z,968.69
2018-12-15T08:19:30.502Z,968.67
2018-12-15T08:20:30.437Z,968.65
2018-12-15T08:21:30.368Z,968.63
2018-12-15T08:22:30.298Z,968.63
2018-12-15T08:23:30.228Z,968.65
2018-12-15T08:24:30.155Z,968.69
2018-12-15T08:25:30.089Z,968.68
2018-12-15T08:26:30.023Z,968.67
2018-12-15T08:27:29.960Z,968.61
2018-12-15T08:28:29.879Z,968.67
2018-12-15T08:29:29.827Z,968.66
2018-12-15T08:30:29.746Z,968.69
2018-12-15T08:31:29.688Z,968.71
2018-12-15T08:32:29.611Z,968.68
2018-12-15T08:33:29.549Z,968.68
2018-12-15T08:34:29.467Z,968.64
2018-12-15T08:35:29.394Z,968.69
2018-12-15T08:36:29.331Z,968.68
2018-12-15T08:37:29.264Z,968.66
2018-12-15T08:38:29.187Z,968.65
2018-12-15T08:39:29.114Z,968.62
2018-12-15T08:40:29.049Z,968.63
2018-12-15T08:41:28.983Z,968.61
2018-12-15T08:42:28.909Z,968.64
2018-12-15T08:43:28.838Z,968.67
2018-12-15T08:44:28.771Z,968.63
2018-12-15T08:45:28.712Z,968.67
2018-12-15T08:46:28.630Z,968.71
2018-12-15T08:47:28.563Z,968.69
2018-12-15T08:48:28.493Z,968.71
2018-12-15T08:49:28.427Z,968.70
2018-12-15T08:50:28.351Z,968.73
2018-12-15T08:51:28.286Z,968.71
2018-12-15T08:52:28.214Z,968.75
2018-12-15T08:53:28.149Z,968.72
2018-12-15T08:54:28.073Z,968.72
2018-12-15T08:55:28.009Z,968.72
2018-12-15T08:56:27.940Z,968.74
2018-12-15T08:57:27.874Z,968.74
2018-12-15T08:58:27.794Z,968.77
2018-12-15T08:59:27.729Z,968.77
2018-12-15T09:00:27.662Z,968.75
2018-12-15T09:01:27.592Z,968.74
2018-12-15T09:02:27.515Z,968.72
2018-12-15T09:03:27.452Z,968.78
2018-12-15T09:04:27.383Z,968.72
2018-12-15T09:05:27.315Z,968.76
2018-12-15T09:06:27.251Z,968.74
2018-12-15T09:07:27.172Z,968.80
2018-12-15T09:08:27.105Z,968.77
2018-12-15T09:09:27.034Z,968.81
2018-12-15T09:10:26.975Z,968.78
2018-12-15T09:11:26.896Z,968.78
2018-12-15T09:12:26.826Z,968.77
2018-12-15T09:13:26.762Z,968.79
2018-12-15T09:14:26.697Z,968.76
2018-12-15T09:15:26.617Z,968.79
2018-12-15T09:16:26.852Z,968.77
2018-12-15T09:17:26.481Z,968.79
2018-12-15T09:18:26.415Z,968.75
2018-12-15T09:19:26.344Z,968.77
2018-12-15T09:20:26.278Z,968.75
2018-12-15T09:21:26.202Z,968.74
2018-12-15T09:22:26.134Z,968.76
2018-12-15T09:23:26.066Z,968.77
2018-12-15T09:24:25.999Z,968.75
2018-12-15T09:25:25.925Z,968.79
2018-12-15T09:26:25.865Z,968.80
2018-12-15T09:27:25.786Z,968.76
2018-12-15T09:28:25.719Z,968.79
2018-12-15T09:29:25.646Z,968.75
2018-12-15T09:30:25.581Z,968.76
2018-12-15T09:31:25.510Z,968.72
2018-12-15T09:32:25.455Z,968.73
2018-12-15T09:33:25.368Z,968.77
2018-12-15T09:34:25.301Z,968.74
2018-12-15T09:35:25.230Z,968.71
2018-12-15T09:36:25.165Z,968.72
2018-12-15T09:37:25.090Z,968.72
2018-12-15T09:38:25.026Z,968.73
2018-12-15T09:39:24.961Z,968.71
2018-12-15T09:40:24.889Z,968.67
2018-12-15T09:41:24.813Z,968.70
2018-12-15T09:42:24.750Z,968.69
2018-12-15T09:43:24.680Z,968.70
2018-12-15T09:44:24.613Z,968.65
2018-12-15T09:45:24.535Z,968.66
2018-12-15T09:46:24.471Z,968.66
2018-12-15T09:47:24.404Z,968.64
2018-12-15T09:48:24.336Z,968.66
2018-12-15T09:49:24.275Z,968.65
2018-12-15T09:50:24.202Z,968.64
2018-12-15T09:51:24.139Z,968.64
2018-12-15T09:52:24.060Z,968.62
2018-12-15T09:53:23.993Z,968.66
2018-12-15T09:54:23.951Z,968.68
2018-12-15T09:55:23.855Z,968.70
2018-12-15T09:56:23.782Z,968.69
2018-12-15T09:57:23.725Z,968.71
2018-12-15T09:58:23.641Z,968.70
2018-12-15T09:59:23.593Z,968.71
2018-12-15T10:00:23.503Z,968.70
2018-12-15T10:01:23.431Z,968.64
2018-12-15T10:02:23.363Z,968.69
2018-12-15T10:03:23.309Z,968.65
2018-12-15T10:04:23.226Z,968.65
2018-12-15T10:05:23.161Z,968.65
2018-12-15T10:06:23.086Z,968.67
2018-12-15T10:07:23.021Z,968.61
2018-12-15T10:08:22.947Z,968.63
2018-12-15T10:09:22.879Z,968.65
2018-12-15T10:10:22.814Z,968.63
2018-12-15T10:11:22.744Z,968.63
2018-12-15T10:12:22.672Z,968.62
2018-12-15T10:13:22.607Z,968.60
2018-12-15T10:14:22.539Z,968.59
2018-12-15T10:15:22.470Z,968.57
2018-12-15T10:16:22.462Z,968.59
2018-12-15T10:17:22.331Z,968.55
2018-12-15T10:18:22.278Z,968.55
2018-12-15T10:19:24.460Z,968.58
2018-12-15T10:20:22.151Z,968.56
2018-12-15T10:21:22.060Z,968.53
2018-12-15T10:22:22.000Z,968.53
2018-12-15T10:23:21.921Z,968.49
2018-12-15T10:24:21.853Z,968.49
2018-12-15T10:25:21.779Z,968.46
2018-12-15T10:26:21.714Z,968.48
2018-12-15T10:27:21.639Z,968.44
2018-12-15T10:28:21.575Z,968.47
2018-12-15T10:29:21.503Z,968.44
2018-12-15T10:30:21.443Z,968.42
2018-12-15T10:31:21.361Z,968.40
2018-12-15T10:32:21.294Z,968.38
2018-12-15T10:33:21.224Z,968.36
2018-12-15T10:34:21.155Z,968.34
2018-12-15T10:35:21.084Z,968.31
2018-12-15T10:36:21.025Z,968.27
2018-12-15T10:37:20.945Z,968.27
2018-12-15T10:38:20.884Z,968.26
2018-12-15T10:39:20.806Z,968.23
2018-12-15T10:40:20.753Z,968.19
2018-12-15T10:41:20.673Z,968.21
2018-12-15T10:42:20.606Z,968.22
2018-12-15T10:43:20.531Z,968.16
2018-12-15T10:44:20.466Z,968.19
2018-12-15T10:45:20.392Z,968.21
2018-12-15T10:46:20.329Z,968.17
2018-12-15T10:47:20.264Z,968.19
2018-12-15T10:48:20.187Z,968.12
2018-12-15T10:49:20.129Z,968.13
2018-12-15T10:50:20.047Z,968.11
2018-12-15T10:51:19.991Z,968.12
2018-12-15T10:52:19.922Z,968.16
2018-12-15T10:53:19.858Z,968.21
2018-12-15T10:54:19.781Z,968.17
2018-12-15T10:55:19.722Z,968.18
2018-12-15T10:56:19.641Z,968.21
2018-12-15T10:57:19.577Z,968.16
2018-12-15T10:58:19.494Z,968.18
2018-12-15T10:59:19.428Z,968.17
2018-12-15T11:00:19.361Z,968.22
2018-12-15T11:01:19.298Z,968.19
2018-12-15T11:02:19.224Z,968.18
2018-12-15T11:03:19.158Z,968.17
2018-12-15T11:04:19.082Z,968.18
2018-12-15T11:05:19.013Z,968.15
2018-12-15T11:06:18.941Z,968.15
2018-12-15T11:07:18.876Z,968.11
2018-12-15T11:08:18.804Z,968.16
2018-12-15T11:09:18.744Z,968.18
2018-12-15T11:10:18.673Z,968.18
2018-12-15T11:11:18.598Z,968.18
2018-12-15T11:12:18.529Z,968.19
2018-12-15T11:13:18.460Z,968.19
2018-12-15T11:14:18.389Z,968.13
2018-12-15T11:15:18.324Z,968.18
2018-12-15T11:16:18.251Z,968.15
2018-12-15T11:17:18.183Z,968.15
2018-12-15T11:18:18.120Z,968.13
2018-12-15T11:19:18.046Z,968.10
2018-12-15T11:20:17.974Z,968.11
2018-12-15T11:21:17.908Z,968.13
2018-12-15T11:22:17.845Z,968.12
2018-12-15T11:23:17.778Z,968.09
2018-12-15T11:24:17.695Z,968.13
2018-12-15T11:25:17.631Z,968.11
2018-12-15T11:26:17.567Z,968.10
2018-12-15T11:27:17.496Z,968.10
2018-12-15T11:28:17.431Z,968.12
2018-12-15T11:29:17.351Z,968.08
2018-12-15T11:30:17.283Z,968.08
2018-12-15T11:31:17.216Z,968.07
2018-12-15T11:32:17.148Z,968.01
2018-12-15T11:33:17.073Z,968.00
2018-12-15T11:34:17.008Z,968.05
2018-12-15T11:35:16.938Z,968.03
2018-12-15T11:36:16.878Z,968.06
2018-12-15T11:37:16.796Z,968.06
2018-12-15T11:38:16.743Z,968.04
2018-12-15T11:39:16.659Z,968.04
2018-12-15T11:40:16.597Z,968.05
2018-12-15T11:41:16.574Z,968.04
2018-12-15T11:42:16.452Z,968.00
2018-12-15T11:43:16.388Z,968.05
2018-12-15T11:44:16.314Z,968.01
2018-12-15T11:45:16.256Z,967.97
2018-12-15T11:46:16.187Z,967.95
2018-12-15T11:47:16.104Z,967.99
2018-12-15T11:48:16.036Z,968.00
2018-12-15T11:49:15.980Z,967.97
2018-12-15T11:50:15.899Z,967.97
2018-12-15T11:51:15.828Z,967.94
2018-12-15T11:52:15.758Z,967.90
2018-12-15T11:53:15.684Z,967.88
2018-12-15T11:54:15.630Z,967.89
2018-12-15T11:55:15.550Z,967.87
2018-12-15T11:56:15.481Z,967.83
2018-12-15T11:57:15.419Z,967.79
2018-12-15T11:58:15.347Z,967.77
2018-12-15T11:59:15.272Z,967.79
2018-12-15T12:00:15.210Z,967.80
2018-12-15T12:01:15.146Z,967.76
2018-12-15T12:02:15.085Z,967.82
2018-12-15T12:03:14.993Z,967.79
2018-12-15T12:04:14.926Z,967.81
2018-12-15T12:05:14.859Z,967.77
2018-12-15T12:06:14.798Z,967.77
2018-12-15T12:07:14.714Z,967.72
2018-12-15T12:08:14.648Z,967.75
2018-12-15T12:09:14.582Z,967.77
2018-12-15T12:10:14.519Z,967.77
2018-12-15T12:11:14.444Z,967.76
2018-12-15T12:12:14.370Z,967.73
2018-12-15T12:13:14.301Z,967.75
2018-12-15T12:14:14.236Z,967.72
2018-12-15T12:15:14.171Z,967.78
2018-12-15T12:16:14.092Z,967.76
2018-12-15T12:17:14.021Z,967.70
2018-12-15T12:18:13.954Z,967.74
2018-12-15T12:19:13.890Z,967.74
2018-12-15T12:20:13.813Z,967.75
2018-12-15T12:21:13.745Z,967.73
2018-12-15T12:22:13.675Z,967.78
2018-12-15T12:23:13.609Z,967.70
2018-12-15T12:24:13.536Z,967.70
2018-12-15T12:25:13.466Z,967.70
2018-12-15T12:26:13.399Z,967.67
2018-12-15T12:27:13.337Z,967.68